sensor_id;sensor_type;location;lat;lon;timestamp;P1;durP1;ratioP1;P2;durP2;ratioP2
51654;SDS011;37732;53.106;7.030;2024-02-26T00:01:27;17.75;;;14.45;;
51654;SDS011;37732;53.106;7.030;2024-02-26T00:03:52;19.33;;;15.35;;
51654;SDS011;37732;53.106;7.030;2024-02-26T00:06:20;21.20;;;15.48;;
51654;SDS011;37732;53.106;7.030;2024-02-26T00:08:46;19.63;;;16.50;;
51654;SDS011;37732;53.106;7.030;2024-02-26T00:11:11;21.67;;;17.25;;
51654;SDS011;37732;53.106;7.030;2024-02-26T00:13:37;19.73;;;16.02;;
51654;SDS011;37732;53.106;7.030;2024-02-26T00:16:03;21.88;;;17.25;;
51654;SDS011;37732;53.106;7.030;2024-02-26T00:18:29;20.70;;;17.23;;
51654;SDS011;37732;53.106;7.030;2024-02-26T00:20:55;21.83;;;17.25;;
51654;SDS011;37732;53.106;7.030;2024-02-26T00:23:20;20.70;;;16.90;;
51654;SDS011;37732;53.106;7.030;2024-02-26T00:25:48;21.85;;;17.35;;
51654;SDS011;37732;53.106;7.030;2024-02-26T00:28:13;21.15;;;17.25;;
51654;SDS011;37732;53.106;7.030;2024-02-26T00:30:39;24.98;;;18.38;;
51654;SDS011;37732;53.106;7.030;2024-02-26T00:33:04;24.25;;;18.35;;
51654;SDS011;37732;53.106;7.030;2024-02-26T00:35:30;22.73;;;18.02;;
51654;SDS011;37732;53.106;7.030;2024-02-26T00:37:56;26.50;;;19.98;;
51654;SDS011;37732;53.106;7.030;2024-02-26T00:40:21;24.92;;;19.75;;
51654;SDS011;37732;53.106;7.030;2024-02-26T00:42:47;27.40;;;20.92;;
51654;SDS011;37732;53.106;7.030;2024-02-26T00:45:13;32.08;;;23.45;;
51654;SDS011;37732;53.106;7.030;2024-02-26T00:47:39;31.70;;;23.02;;
51654;SDS011;37732;53.106;7.030;2024-02-26T00:50:06;30.35;;;23.77;;
51654;SDS011;37732;53.106;7.030;2024-02-26T00:52:33;32.15;;;25.92;;
51654;SDS011;37732;53.106;7.030;2024-02-26T00:54:59;35.63;;;27.00;;
51654;SDS011;37732;53.106;7.030;2024-02-26T00:57:25;36.97;;;27.15;;
51654;SDS011;37732;53.106;7.030;2024-02-26T00:59:51;34.70;;;26.80;;
51654;SDS011;37732;53.106;7.030;2024-02-26T01:02:16;34.47;;;27.27;;
51654;SDS011;37732;53.106;7.030;2024-02-26T01:04:42;38.30;;;28.73;;
51654;SDS011;37732;53.106;7.030;2024-02-26T01:07:08;34.55;;;25.67;;
51654;SDS011;37732;53.106;7.030;2024-02-26T01:09:34;34.50;;;26.58;;
51654;SDS011;37732;53.106;7.030;2024-02-26T01:12:00;35.70;;;27.27;;
51654;SDS011;37732;53.106;7.030;2024-02-26T01:14:27;32.67;;;27.02;;
51654;SDS011;37732;53.106;7.030;2024-02-26T01:16:53;32.63;;;27.25;;
51654;SDS011;37732;53.106;7.030;2024-02-26T01:19:19;37.33;;;28.85;;
51654;SDS011;37732;53.106;7.030;2024-02-26T01:21:44;36.03;;;26.35;;
51654;SDS011;37732;53.106;7.030;2024-02-26T01:24:10;35.70;;;28.75;;
51654;SDS011;37732;53.106;7.030;2024-02-26T01:26:36;39.47;;;30.10;;
51654;SDS011;37732;53.106;7.030;2024-02-26T01:29:02;37.13;;;29.48;;
51654;SDS011;37732;53.106;7.030;2024-02-26T01:31:27;38.33;;;30.98;;
51654;SDS011;37732;53.106;7.030;2024-02-26T01:33:53;38.97;;;31.92;;
51654;SDS011;37732;53.106;7.030;2024-02-26T01:36:19;39.25;;;30.42;;
51654;SDS011;37732;53.106;7.030;2024-02-26T01:38:46;41.28;;;31.02;;
51654;SDS011;37732;53.106;7.030;2024-02-26T01:41:13;44.25;;;32.00;;
51654;SDS011;37732;53.106;7.030;2024-02-26T01:43:39;42.03;;;31.52;;
51654;SDS011;37732;53.106;7.030;2024-02-26T01:46:05;41.03;;;31.63;;
51654;SDS011;37732;53.106;7.030;2024-02-26T01:48:34;45.53;;;32.65;;
51654;SDS011;37732;53.106;7.030;2024-02-26T01:51:00;39.67;;;29.50;;
51654;SDS011;37732;53.106;7.030;2024-02-26T01:53:26;40.63;;;30.55;;
51654;SDS011;37732;53.106;7.030;2024-02-26T01:55:51;39.85;;;30.05;;
51654;SDS011;37732;53.106;7.030;2024-02-26T01:58:17;39.53;;;30.67;;
51654;SDS011;37732;53.106;7.030;2024-02-26T02:03:18;41.85;;;31.13;;
51654;SDS011;37732;53.106;7.030;2024-02-26T02:05:44;38.63;;;29.52;;
51654;SDS011;37732;53.106;7.030;2024-02-26T02:08:10;39.38;;;30.23;;
51654;SDS011;37732;53.106;7.030;2024-02-26T02:10:42;40.15;;;29.67;;
51654;SDS011;37732;53.106;7.030;2024-02-26T02:13:08;37.15;;;28.50;;
51654;SDS011;37732;53.106;7.030;2024-02-26T02:15:34;39.72;;;29.88;;
51654;SDS011;37732;53.106;7.030;2024-02-26T02:17:59;38.63;;;29.08;;
51654;SDS011;37732;53.106;7.030;2024-02-26T02:20:26;38.20;;;29.45;;
51654;SDS011;37732;53.106;7.030;2024-02-26T02:23:00;38.42;;;29.10;;
51654;SDS011;37732;53.106;7.030;2024-02-26T02:25:26;34.33;;;28.63;;
51654;SDS011;37732;53.106;7.030;2024-02-26T02:27:53;37.38;;;28.95;;
51654;SDS011;37732;53.106;7.030;2024-02-26T02:30:20;34.70;;;28.67;;
51654;SDS011;37732;53.106;7.030;2024-02-26T02:32:49;35.53;;;30.10;;
51654;SDS011;37732;53.106;7.030;2024-02-26T02:35:14;34.42;;;27.75;;
51654;SDS011;37732;53.106;7.030;2024-02-26T02:37:40;32.72;;;26.75;;
51654;SDS011;37732;53.106;7.030;2024-02-26T02:40:06;29.05;;;24.80;;
51654;SDS011;37732;53.106;7.030;2024-02-26T02:42:32;28.15;;;23.55;;
51654;SDS011;37732;53.106;7.030;2024-02-26T02:44:58;33.08;;;25.15;;
51654;SDS011;37732;53.106;7.030;2024-02-26T02:47:24;29.13;;;24.25;;
51654;SDS011;37732;53.106;7.030;2024-02-26T02:49:49;25.05;;;22.10;;
51654;SDS011;37732;53.106;7.030;2024-02-26T02:52:15;24.17;;;21.17;;
51654;SDS011;37732;53.106;7.030;2024-02-26T02:54:41;25.70;;;21.25;;
51654;SDS011;37732;53.106;7.030;2024-02-26T02:57:07;24.50;;;20.58;;
51654;SDS011;37732;53.106;7.030;2024-02-26T02:59:33;24.35;;;19.13;;
51654;SDS011;37732;53.106;7.030;2024-02-26T03:01:59;22.10;;;19.35;;
51654;SDS011;37732;53.106;7.030;2024-02-26T03:04:25;21.77;;;17.20;;
51654;SDS011;37732;53.106;7.030;2024-02-26T03:06:50;19.95;;;17.23;;
51654;SDS011;37732;53.106;7.030;2024-02-26T03:09:16;18.58;;;16.33;;
51654;SDS011;37732;53.106;7.030;2024-02-26T03:11:41;18.63;;;15.20;;
51654;SDS011;37732;53.106;7.030;2024-02-26T03:14:07;18.30;;;16.02;;
51654;SDS011;37732;53.106;7.030;2024-02-26T03:16:34;17.92;;;16.02;;
51654;SDS011;37732;53.106;7.030;2024-02-26T03:19:00;17.20;;;15.20;;
51654;SDS011;37732;53.106;7.030;2024-02-26T03:21:27;16.80;;;14.70;;
51654;SDS011;37732;53.106;7.030;2024-02-26T03:23:52;18.92;;;14.52;;
51654;SDS011;37732;53.106;7.030;2024-02-26T03:26:18;18.08;;;15.48;;
51654;SDS011;37732;53.106;7.030;2024-02-26T03:28:44;17.48;;;15.48;;
51654;SDS011;37732;53.106;7.030;2024-02-26T03:31:10;17.42;;;14.45;;
51654;SDS011;37732;53.106;7.030;2024-02-26T03:33:38;17.45;;;14.63;;
51654;SDS011;37732;53.106;7.030;2024-02-26T03:36:04;15.85;;;13.23;;
51654;SDS011;37732;53.106;7.030;2024-02-26T03:38:30;16.35;;;13.82;;
51654;SDS011;37732;53.106;7.030;2024-02-26T03:40:56;15.63;;;13.90;;
51654;SDS011;37732;53.106;7.030;2024-02-26T03:43:21;15.80;;;13.30;;
51654;SDS011;37732;53.106;7.030;2024-02-26T03:45:47;17.20;;;13.18;;
51654;SDS011;37732;53.106;7.030;2024-02-26T03:48:13;15.63;;;12.88;;
51654;SDS011;37732;53.106;7.030;2024-02-26T03:50:38;13.30;;;11.77;;
51654;SDS011;37732;53.106;7.030;2024-02-26T03:53:04;14.75;;;12.40;;
51654;SDS011;37732;53.106;7.030;2024-02-26T03:55:30;13.80;;;11.88;;
51654;SDS011;37732;53.106;7.030;2024-02-26T03:57:55;14.85;;;11.43;;
51654;SDS011;37732;53.106;7.030;2024-02-26T04:00:21;13.55;;;10.55;;
51654;SDS011;37732;53.106;7.030;2024-02-26T04:02:47;12.55;;;9.68;;
51654;SDS011;37732;53.106;7.030;2024-02-26T04:05:13;11.38;;;9.35;;
51654;SDS011;37732;53.106;7.030;2024-02-26T04:07:39;11.68;;;8.95;;
51654;SDS011;37732;53.106;7.030;2024-02-26T04:10:09;12.98;;;10.27;;
51654;SDS011;37732;53.106;7.030;2024-02-26T04:12:37;11.35;;;9.48;;
51654;SDS011;37732;53.106;7.030;2024-02-26T04:15:04;11.10;;;9.35;;
51654;SDS011;37732;53.106;7.030;2024-02-26T04:17:30;13.88;;;10.18;;
51654;SDS011;37732;53.106;7.030;2024-02-26T04:19:56;13.20;;;9.38;;
51654;SDS011;37732;53.106;7.030;2024-02-26T04:22:22;12.23;;;9.32;;
51654;SDS011;37732;53.106;7.030;2024-02-26T04:24:47;13.00;;;9.43;;
51654;SDS011;37732;53.106;7.030;2024-02-26T04:27:13;12.73;;;9.20;;
51654;SDS011;37732;53.106;7.030;2024-02-26T04:29:39;10.05;;;8.80;;
51654;SDS011;37732;53.106;7.030;2024-02-26T04:32:04;10.45;;;8.98;;
51654;SDS011;37732;53.106;7.030;2024-02-26T04:34:30;12.90;;;9.68;;
51654;SDS011;37732;53.106;7.030;2024-02-26T04:36:56;11.63;;;9.00;;
51654;SDS011;37732;53.106;7.030;2024-02-26T04:39:22;11.27;;;8.88;;
51654;SDS011;37732;53.106;7.030;2024-02-26T04:41:47;11.30;;;8.70;;
51654;SDS011;37732;53.106;7.030;2024-02-26T04:44:13;12.05;;;8.60;;
51654;SDS011;37732;53.106;7.030;2024-02-26T04:46:39;11.82;;;8.38;;
51654;SDS011;37732;53.106;7.030;2024-02-26T04:49:04;13.75;;;8.85;;
51654;SDS011;37732;53.106;7.030;2024-02-26T04:51:30;9.35;;;7.63;;
51654;SDS011;37732;53.106;7.030;2024-02-26T04:53:56;10.52;;;8.02;;
51654;SDS011;37732;53.106;7.030;2024-02-26T04:56:22;10.13;;;9.05;;
51654;SDS011;37732;53.106;7.030;2024-02-26T04:58:47;10.25;;;7.35;;
51654;SDS011;37732;53.106;7.030;2024-02-26T05:01:13;10.48;;;8.07;;
51654;SDS011;37732;53.106;7.030;2024-02-26T05:03:41;9.50;;;7.38;;
51654;SDS011;37732;53.106;7.030;2024-02-26T05:06:08;10.80;;;7.82;;
51654;SDS011;37732;53.106;7.030;2024-02-26T05:08:34;9.43;;;7.30;;
51654;SDS011;37732;53.106;7.030;2024-02-26T05:11:01;10.90;;;7.80;;
51654;SDS011;37732;53.106;7.030;2024-02-26T05:13:30;9.15;;;7.22;;
51654;SDS011;37732;53.106;7.030;2024-02-26T05:15:56;8.80;;;7.40;;
51654;SDS011;37732;53.106;7.030;2024-02-26T05:18:22;11.38;;;7.15;;
51654;SDS011;37732;53.106;7.030;2024-02-26T05:20:49;10.10;;;7.57;;
51654;SDS011;37732;53.106;7.030;2024-02-26T05:23:14;9.00;;;6.60;;
51654;SDS011;37732;53.106;7.030;2024-02-26T05:25:40;10.30;;;6.85;;
51654;SDS011;37732;53.106;7.030;2024-02-26T05:28:06;9.45;;;6.85;;
51654;SDS011;37732;53.106;7.030;2024-02-26T05:30:32;11.68;;;7.20;;
51654;SDS011;37732;53.106;7.030;2024-02-26T05:32:58;8.40;;;6.82;;
51654;SDS011;37732;53.106;7.030;2024-02-26T05:35:24;12.00;;;7.45;;
51654;SDS011;37732;53.106;7.030;2024-02-26T05:37:53;9.80;;;6.70;;
51654;SDS011;37732;53.106;7.030;2024-02-26T05:40:19;8.90;;;6.90;;
51654;SDS011;37732;53.106;7.030;2024-02-26T05:42:44;9.35;;;7.25;;
51654;SDS011;37732;53.106;7.030;2024-02-26T05:45:10;9.27;;;6.40;;
51654;SDS011;37732;53.106;7.030;2024-02-26T05:47:36;9.80;;;7.53;;
51654;SDS011;37732;53.106;7.030;2024-02-26T05:50:08;8.88;;;6.78;;
51654;SDS011;37732;53.106;7.030;2024-02-26T05:52:36;11.18;;;6.80;;
51654;SDS011;37732;53.106;7.030;2024-02-26T05:55:05;8.43;;;6.30;;
51654;SDS011;37732;53.106;7.030;2024-02-26T05:57:34;7.93;;;6.13;;
51654;SDS011;37732;53.106;7.030;2024-02-26T06:00:01;8.73;;;6.65;;
51654;SDS011;37732;53.106;7.030;2024-02-26T06:02:29;8.52;;;6.43;;
51654;SDS011;37732;53.106;7.030;2024-02-26T06:04:57;7.70;;;6.05;;
51654;SDS011;37732;53.106;7.030;2024-02-26T06:07:23;8.90;;;6.47;;
51654;SDS011;37732;53.106;7.030;2024-02-26T06:09:49;10.57;;;6.95;;
51654;SDS011;37732;53.106;7.030;2024-02-26T06:12:14;8.25;;;6.05;;
51654;SDS011;37732;53.106;7.030;2024-02-26T06:14:41;8.68;;;6.28;;
51654;SDS011;37732;53.106;7.030;2024-02-26T06:17:07;8.00;;;6.13;;
51654;SDS011;37732;53.106;7.030;2024-02-26T06:19:33;9.48;;;5.75;;
51654;SDS011;37732;53.106;7.030;2024-02-26T06:21:58;7.75;;;5.95;;
51654;SDS011;37732;53.106;7.030;2024-02-26T06:24:24;7.20;;;5.38;;
51654;SDS011;37732;53.106;7.030;2024-02-26T06:26:50;7.90;;;5.85;;
51654;SDS011;37732;53.106;7.030;2024-02-26T06:29:15;8.23;;;6.13;;
51654;SDS011;37732;53.106;7.030;2024-02-26T06:31:41;8.10;;;5.88;;
51654;SDS011;37732;53.106;7.030;2024-02-26T06:34:07;9.23;;;5.97;;
51654;SDS011;37732;53.106;7.030;2024-02-26T06:36:32;7.90;;;5.65;;
51654;SDS011;37732;53.106;7.030;2024-02-26T06:38:59;7.57;;;5.97;;
51654;SDS011;37732;53.106;7.030;2024-02-26T06:41:25;7.40;;;5.95;;
51654;SDS011;37732;53.106;7.030;2024-02-26T06:43:55;6.90;;;5.25;;
51654;SDS011;37732;53.106;7.030;2024-02-26T06:46:22;7.20;;;6.03;;
51654;SDS011;37732;53.106;7.030;2024-02-26T06:48:48;7.10;;;5.60;;
51654;SDS011;37732;53.106;7.030;2024-02-26T06:51:14;8.00;;;5.97;;
51654;SDS011;37732;53.106;7.030;2024-02-26T06:53:40;8.95;;;5.60;;
51654;SDS011;37732;53.106;7.030;2024-02-26T06:56:06;7.72;;;5.70;;
51654;SDS011;37732;53.106;7.030;2024-02-26T06:58:31;7.18;;;5.45;;
51654;SDS011;37732;53.106;7.030;2024-02-26T07:00:58;10.13;;;5.65;;
51654;SDS011;37732;53.106;7.030;2024-02-26T07:03:23;8.07;;;5.18;;
51654;SDS011;37732;53.106;7.030;2024-02-26T07:05:50;7.22;;;5.43;;
51654;SDS011;37732;53.106;7.030;2024-02-26T07:08:17;7.30;;;5.60;;
51654;SDS011;37732;53.106;7.030;2024-02-26T07:10:43;7.65;;;5.90;;
51654;SDS011;37732;53.106;7.030;2024-02-26T07:13:09;8.43;;;5.90;;
51654;SDS011;37732;53.106;7.030;2024-02-26T07:15:34;7.70;;;5.75;;
51654;SDS011;37732;53.106;7.030;2024-02-26T07:18:00;7.57;;;5.47;;
51654;SDS011;37732;53.106;7.030;2024-02-26T07:20:29;7.25;;;5.05;;
51654;SDS011;37732;53.106;7.030;2024-02-26T07:22:55;7.78;;;5.30;;
51654;SDS011;37732;53.106;7.030;2024-02-26T07:25:21;7.68;;;5.70;;
51654;SDS011;37732;53.106;7.030;2024-02-26T07:27:47;8.32;;;6.25;;
51654;SDS011;37732;53.106;7.030;2024-02-26T07:30:13;7.82;;;5.55;;
51654;SDS011;37732;53.106;7.030;2024-02-26T07:32:39;7.22;;;5.90;;
51654;SDS011;37732;53.106;7.030;2024-02-26T07:35:05;6.82;;;5.18;;
51654;SDS011;37732;53.106;7.030;2024-02-26T07:37:31;6.95;;;5.63;;
51654;SDS011;37732;53.106;7.030;2024-02-26T07:39:57;7.65;;;6.03;;
51654;SDS011;37732;53.106;7.030;2024-02-26T07:42:22;7.00;;;5.43;;
51654;SDS011;37732;53.106;7.030;2024-02-26T07:44:48;7.85;;;5.57;;
51654;SDS011;37732;53.106;7.030;2024-02-26T07:47:14;7.57;;;6.10;;
51654;SDS011;37732;53.106;7.030;2024-02-26T07:49:40;7.18;;;5.90;;
51654;SDS011;37732;53.106;7.030;2024-02-26T07:52:06;7.70;;;5.63;;
51654;SDS011;37732;53.106;7.030;2024-02-26T07:54:31;6.90;;;5.97;;
51654;SDS011;37732;53.106;7.030;2024-02-26T07:56:57;6.75;;;5.90;;
51654;SDS011;37732;53.106;7.030;2024-02-26T07:59:23;7.13;;;5.63;;
51654;SDS011;37732;53.106;7.030;2024-02-26T08:01:50;7.63;;;5.75;;
51654;SDS011;37732;53.106;7.030;2024-02-26T08:04:16;7.43;;;5.95;;
51654;SDS011;37732;53.106;7.030;2024-02-26T08:06:42;6.85;;;5.43;;
51654;SDS011;37732;53.106;7.030;2024-02-26T08:09:08;7.03;;;5.85;;
51654;SDS011;37732;53.106;7.030;2024-02-26T08:11:33;7.80;;;6.40;;
51654;SDS011;37732;53.106;7.030;2024-02-26T08:13:59;8.63;;;6.35;;
51654;SDS011;37732;53.106;7.030;2024-02-26T08:16:25;7.70;;;6.15;;
51654;SDS011;37732;53.106;7.030;2024-02-26T08:18:51;7.70;;;5.80;;
51654;SDS011;37732;53.106;7.030;2024-02-26T08:21:17;9.15;;;6.90;;
51654;SDS011;37732;53.106;7.030;2024-02-26T08:23:43;7.13;;;5.75;;
51654;SDS011;37732;53.106;7.030;2024-02-26T08:26:09;7.57;;;6.35;;
51654;SDS011;37732;53.106;7.030;2024-02-26T08:28:39;7.70;;;6.45;;
51654;SDS011;37732;53.106;7.030;2024-02-26T08:31:05;8.23;;;6.22;;
51654;SDS011;37732;53.106;7.030;2024-02-26T08:33:30;7.38;;;6.13;;
51654;SDS011;37732;53.106;7.030;2024-02-26T08:35:56;9.93;;;6.30;;
51654;SDS011;37732;53.106;7.030;2024-02-26T08:38:23;7.47;;;6.05;;
51654;SDS011;37732;53.106;7.030;2024-02-26T08:40:49;7.82;;;6.32;;
51654;SDS011;37732;53.106;7.030;2024-02-26T08:43:14;8.02;;;6.32;;
51654;SDS011;37732;53.106;7.030;2024-02-26T08:45:40;7.40;;;6.07;;
51654;SDS011;37732;53.106;7.030;2024-02-26T08:48:06;8.45;;;5.70;;
51654;SDS011;37732;53.106;7.030;2024-02-26T08:50:32;8.70;;;6.40;;
51654;SDS011;37732;53.106;7.030;2024-02-26T08:52:58;7.68;;;6.22;;
51654;SDS011;37732;53.106;7.030;2024-02-26T08:55:26;9.30;;;6.65;;
51654;SDS011;37732;53.106;7.030;2024-02-26T08:57:51;7.75;;;6.00;;
51654;SDS011;37732;53.106;7.030;2024-02-26T09:00:17;9.55;;;6.93;;
51654;SDS011;37732;53.106;7.030;2024-02-26T09:02:45;8.07;;;6.85;;
51654;SDS011;37732;53.106;7.030;2024-02-26T09:05:12;10.05;;;6.53;;
51654;SDS011;37732;53.106;7.030;2024-02-26T09:07:38;8.27;;;6.03;;
51654;SDS011;37732;53.106;7.030;2024-02-26T09:10:04;9.35;;;6.30;;
51654;SDS011;37732;53.106;7.030;2024-02-26T09:12:31;8.15;;;6.22;;
51654;SDS011;37732;53.106;7.030;2024-02-26T09:14:57;11.30;;;6.63;;
51654;SDS011;37732;53.106;7.030;2024-02-26T09:17:22;7.75;;;6.40;;
51654;SDS011;37732;53.106;7.030;2024-02-26T09:19:48;7.90;;;6.18;;
51654;SDS011;37732;53.106;7.030;2024-02-26T09:22:14;8.13;;;5.90;;
51654;SDS011;37732;53.106;7.030;2024-02-26T09:24:40;8.20;;;5.88;;
51654;SDS011;37732;53.106;7.030;2024-02-26T09:27:05;9.38;;;6.82;;
51654;SDS011;37732;53.106;7.030;2024-02-26T09:29:31;7.35;;;6.07;;
51654;SDS011;37732;53.106;7.030;2024-02-26T09:31:58;8.23;;;6.57;;
51654;SDS011;37732;53.106;7.030;2024-02-26T09:34:23;13.43;;;6.53;;
51654;SDS011;37732;53.106;7.030;2024-02-26T09:36:49;9.30;;;6.95;;
51654;SDS011;37732;53.106;7.030;2024-02-26T09:39:15;9.05;;;7.05;;
51654;SDS011;37732;53.106;7.030;2024-02-26T09:41:46;9.52;;;7.40;;
51654;SDS011;37732;53.106;7.030;2024-02-26T09:44:13;8.00;;;6.07;;
51654;SDS011;37732;53.106;7.030;2024-02-26T09:46:43;8.35;;;6.53;;
51654;SDS011;37732;53.106;7.030;2024-02-26T09:49:09;8.00;;;6.55;;
51654;SDS011;37732;53.106;7.030;2024-02-26T09:51:37;6.93;;;5.43;;
51654;SDS011;37732;53.106;7.030;2024-02-26T09:54:04;10.95;;;6.22;;
51654;SDS011;37732;53.106;7.030;2024-02-26T09:56:34;7.75;;;6.70;;
51654;SDS011;37732;53.106;7.030;2024-02-26T09:59:06;8.63;;;6.68;;
51654;SDS011;37732;53.106;7.030;2024-02-26T10:01:35;8.45;;;6.25;;
51654;SDS011;37732;53.106;7.030;2024-02-26T10:04:02;7.68;;;5.65;;
51654;SDS011;37732;53.106;7.030;2024-02-26T10:06:29;7.18;;;5.70;;
51654;SDS011;37732;53.106;7.030;2024-02-26T10:08:55;8.48;;;5.53;;
51654;SDS011;37732;53.106;7.030;2024-02-26T10:11:23;7.75;;;6.10;;
51654;SDS011;37732;53.106;7.030;2024-02-26T10:13:50;9.07;;;6.53;;
51654;SDS011;37732;53.106;7.030;2024-02-26T10:16:16;9.73;;;6.60;;
51654;SDS011;37732;53.106;7.030;2024-02-26T10:18:51;9.00;;;6.85;;
51654;SDS011;37732;53.106;7.030;2024-02-26T10:21:22;8.48;;;6.00;;
51654;SDS011;37732;53.106;7.030;2024-02-26T10:23:48;8.35;;;6.35;;
51654;SDS011;37732;53.106;7.030;2024-02-26T10:26:15;7.05;;;5.60;;
51654;SDS011;37732;53.106;7.030;2024-02-26T10:28:42;8.35;;;5.72;;
51654;SDS011;37732;53.106;7.030;2024-02-26T10:31:09;6.90;;;5.72;;
51654;SDS011;37732;53.106;7.030;2024-02-26T10:33:38;6.95;;;5.30;;
51654;SDS011;37732;53.106;7.030;2024-02-26T10:36:04;6.60;;;4.80;;
51654;SDS011;37732;53.106;7.030;2024-02-26T10:38:34;7.50;;;5.15;;
51654;SDS011;37732;53.106;7.030;2024-02-26T10:41:05;7.18;;;5.93;;
51654;SDS011;37732;53.106;7.030;2024-02-26T10:43:31;7.35;;;5.55;;
51654;SDS011;37732;53.106;7.030;2024-02-26T10:45:57;8.40;;;5.18;;
51654;SDS011;37732;53.106;7.030;2024-02-26T10:48:23;7.38;;;5.25;;
51654;SDS011;37732;53.106;7.030;2024-02-26T10:50:49;8.23;;;5.53;;
51654;SDS011;37732;53.106;7.030;2024-02-26T10:53:22;7.50;;;5.35;;
51654;SDS011;37732;53.106;7.030;2024-02-26T10:55:55;7.72;;;5.60;;
51654;SDS011;37732;53.106;7.030;2024-02-26T10:58:26;7.03;;;4.53;;
51654;SDS011;37732;53.106;7.030;2024-02-26T11:00:53;8.30;;;5.43;;
51654;SDS011;37732;53.106;7.030;2024-02-26T11:03:22;7.35;;;5.20;;
51654;SDS011;37732;53.106;7.030;2024-02-26T11:05:49;7.35;;;5.45;;
51654;SDS011;37732;53.106;7.030;2024-02-26T11:08:16;7.03;;;4.93;;
51654;SDS011;37732;53.106;7.030;2024-02-26T11:10:47;7.63;;;4.97;;
51654;SDS011;37732;53.106;7.030;2024-02-26T11:13:14;6.93;;;6.13;;
51654;SDS011;37732;53.106;7.030;2024-02-26T11:15:42;6.88;;;5.22;;
51654;SDS011;37732;53.106;7.030;2024-02-26T11:18:09;7.93;;;5.40;;
51654;SDS011;37732;53.106;7.030;2024-02-26T11:20:38;7.18;;;5.25;;
51654;SDS011;37732;53.106;7.030;2024-02-26T11:23:05;7.05;;;5.10;;
51654;SDS011;37732;53.106;7.030;2024-02-26T11:25:32;7.78;;;5.22;;
51654;SDS011;37732;53.106;7.030;2024-02-26T11:28:02;7.25;;;5.60;;
51654;SDS011;37732;53.106;7.030;2024-02-26T11:30:31;8.18;;;5.78;;
51654;SDS011;37732;53.106;7.030;2024-02-26T11:33:01;6.38;;;4.97;;
51654;SDS011;37732;53.106;7.030;2024-02-26T11:35:27;7.00;;;5.47;;
51654;SDS011;37732;53.106;7.030;2024-02-26T11:37:54;8.80;;;5.38;;
51654;SDS011;37732;53.106;7.030;2024-02-26T11:40:24;8.13;;;5.22;;
51654;SDS011;37732;53.106;7.030;2024-02-26T11:42:53;8.05;;;5.72;;
51654;SDS011;37732;53.106;7.030;2024-02-26T11:45:53;6.70;;;4.93;;
51654;SDS011;37732;53.106;7.030;2024-02-26T11:48:13;6.90;;;5.03;;
51654;SDS011;37732;53.106;7.030;2024-02-26T11:50:40;7.88;;;5.50;;
51654;SDS011;37732;53.106;7.030;2024-02-26T11:58:42;6.65;;;5.30;;
51654;SDS011;37732;53.106;7.030;2024-02-26T12:04:13;7.15;;;5.57;;
51654;SDS011;37732;53.106;7.030;2024-02-26T12:06:58;7.30;;;5.63;;
51654;SDS011;37732;53.106;7.030;2024-02-26T12:09:39;8.30;;;6.32;;
51654;SDS011;37732;53.106;7.030;2024-02-26T12:12:07;9.30;;;6.00;;
51654;SDS011;37732;53.106;7.030;2024-02-26T12:14:52;7.50;;;5.82;;
51654;SDS011;37732;53.106;7.030;2024-02-26T12:17:23;7.28;;;5.28;;
51654;SDS011;37732;53.106;7.030;2024-02-26T12:19:50;8.32;;;6.07;;
51654;SDS011;37732;53.106;7.030;2024-02-26T12:22:20;7.88;;;5.63;;
51654;SDS011;37732;53.106;7.030;2024-02-26T12:24:46;8.88;;;6.13;;
51654;SDS011;37732;53.106;7.030;2024-02-26T12:27:11;8.30;;;6.63;;
51654;SDS011;37732;53.106;7.030;2024-02-26T12:29:37;8.20;;;6.03;;
51654;SDS011;37732;53.106;7.030;2024-02-26T12:32:05;8.32;;;6.72;;
51654;SDS011;37732;53.106;7.030;2024-02-26T12:34:31;8.88;;;6.38;;
51654;SDS011;37732;53.106;7.030;2024-02-26T12:36:57;9.45;;;7.28;;
51654;SDS011;37732;53.106;7.030;2024-02-26T12:39:23;7.72;;;6.18;;
51654;SDS011;37732;53.106;7.030;2024-02-26T12:41:49;9.27;;;6.97;;
51654;SDS011;37732;53.106;7.030;2024-02-26T12:44:15;10.57;;;7.80;;
51654;SDS011;37732;53.106;7.030;2024-02-26T12:46:41;9.48;;;7.28;;
51654;SDS011;37732;53.106;7.030;2024-02-26T12:49:07;9.85;;;6.93;;
51654;SDS011;37732;53.106;7.030;2024-02-26T12:51:34;9.40;;;7.53;;
51654;SDS011;37732;53.106;7.030;2024-02-26T12:54:00;9.60;;;7.45;;
51654;SDS011;37732;53.106;7.030;2024-02-26T12:56:26;9.48;;;7.65;;
51654;SDS011;37732;53.106;7.030;2024-02-26T12:58:53;10.10;;;7.88;;
51654;SDS011;37732;53.106;7.030;2024-02-26T13:01:22;9.68;;;7.13;;
51654;SDS011;37732;53.106;7.030;2024-02-26T13:03:49;11.13;;;7.78;;
51654;SDS011;37732;53.106;7.030;2024-02-26T13:06:17;9.65;;;7.85;;
51654;SDS011;37732;53.106;7.030;2024-02-26T13:08:43;9.68;;;7.82;;
51654;SDS011;37732;53.106;7.030;2024-02-26T13:11:10;10.15;;;7.50;;
51654;SDS011;37732;53.106;7.030;2024-02-26T13:13:36;11.63;;;8.07;;
51654;SDS011;37732;53.106;7.030;2024-02-26T13:16:02;9.07;;;6.65;;
51654;SDS011;37732;53.106;7.030;2024-02-26T13:18:33;9.40;;;7.28;;
51654;SDS011;37732;53.106;7.030;2024-02-26T13:21:09;9.52;;;7.40;;
51654;SDS011;37732;53.106;7.030;2024-02-26T13:23:37;11.73;;;8.23;;
51654;SDS011;37732;53.106;7.030;2024-02-26T13:26:04;10.82;;;8.13;;
51654;SDS011;37732;53.106;7.030;2024-02-26T13:28:29;9.80;;;7.75;;
51654;SDS011;37732;53.106;7.030;2024-02-26T13:30:56;9.52;;;7.97;;
51654;SDS011;37732;53.106;7.030;2024-02-26T13:33:22;10.25;;;8.20;;
51654;SDS011;37732;53.106;7.030;2024-02-26T13:35:49;12.82;;;9.15;;
51654;SDS011;37732;53.106;7.030;2024-02-26T13:38:15;9.57;;;7.78;;
51654;SDS011;37732;53.106;7.030;2024-02-26T13:40:42;11.02;;;8.73;;
51654;SDS011;37732;53.106;7.030;2024-02-26T13:43:07;11.32;;;8.88;;
51654;SDS011;37732;53.106;7.030;2024-02-26T13:45:33;10.55;;;8.43;;
51654;SDS011;37732;53.106;7.030;2024-02-26T13:48:04;12.02;;;9.07;;
51654;SDS011;37732;53.106;7.030;2024-02-26T13:50:31;11.68;;;9.25;;
51654;SDS011;37732;53.106;7.030;2024-02-26T13:52:57;13.02;;;9.73;;
51654;SDS011;37732;53.106;7.030;2024-02-26T13:55:25;11.23;;;9.55;;
51654;SDS011;37732;53.106;7.030;2024-02-26T13:57:53;11.55;;;8.95;;
51654;SDS011;37732;53.106;7.030;2024-02-26T14:00:19;11.73;;;9.55;;
51654;SDS011;37732;53.106;7.030;2024-02-26T14:02:45;13.00;;;9.82;;
51654;SDS011;37732;53.106;7.030;2024-02-26T14:05:11;13.15;;;10.10;;
51654;SDS011;37732;53.106;7.030;2024-02-26T14:07:37;14.60;;;10.45;;
51654;SDS011;37732;53.106;7.030;2024-02-26T14:10:03;13.10;;;10.65;;
51654;SDS011;37732;53.106;7.030;2024-02-26T14:12:29;13.45;;;10.15;;
51654;SDS011;37732;53.106;7.030;2024-02-26T14:14:55;12.52;;;10.15;;
51654;SDS011;37732;53.106;7.030;2024-02-26T14:17:21;14.02;;;10.68;;
51654;SDS011;37732;53.106;7.030;2024-02-26T14:19:47;13.82;;;10.85;;
51654;SDS011;37732;53.106;7.030;2024-02-26T14:22:13;13.57;;;10.43;;
51654;SDS011;37732;53.106;7.030;2024-02-26T14:24:42;13.68;;;10.77;;
51654;SDS011;37732;53.106;7.030;2024-02-26T14:27:08;12.50;;;10.35;;
51654;SDS011;37732;53.106;7.030;2024-02-26T14:29:37;11.90;;;9.63;;
51654;SDS011;37732;53.106;7.030;2024-02-26T14:32:05;14.05;;;11.38;;
51654;SDS011;37732;53.106;7.030;2024-02-26T14:34:30;12.35;;;10.13;;
51654;SDS011;37732;53.106;7.030;2024-02-26T14:36:56;16.83;;;9.50;;
51654;SDS011;37732;53.106;7.030;2024-02-26T14:39:22;13.13;;;9.68;;
51654;SDS011;37732;53.106;7.030;2024-02-26T14:41:48;12.38;;;10.73;;
51654;SDS011;37732;53.106;7.030;2024-02-26T14:44:14;12.52;;;10.20;;
51654;SDS011;37732;53.106;7.030;2024-02-26T14:46:40;12.88;;;9.85;;